Time;durP1;ratioP1;P1;durP2;ratioP2;P2;SDS_P1;SDS_P2;PMS_P1;PMS_P2;Temp;Humidity;BMP_temperature;BMP_pressure;BME280_temperature;BME280_humidity;BME280_pressure;Samples;Min_cycle;Max_cycle;Signal;HPM_P1;HPM_P2
2023/07/18 00:00:32;;;;;;;6.43;2.78;;;14.10;96.30;;;;;;5117012;27;20100;-88
2023/07/18 00:02:59;;;;;;;7.75;2.63;;;14.00;96.20;;;;;;5118064;28;20081;-88
2023/07/18 00:05:25;;;;;;;7.50;2.50;;;13.90;96.30;;;;;;5115911;28;20420;-88
2023/07/18 00:07:50;;;;;;;9.73;2.72;;;13.90;96.20;;;;;;5114403;27;20027;-88
2023/07/18 00:10:19;;;;;;;5.38;2.42;;;13.90;96.20;;;;;;5106389;27;20344;-87
2023/07/18 00:12:45;;;;;;;7.75;2.65;;;13.90;96.00;;;;;;5110874;28;20034;-88
2023/07/18 00:15:12;;;;;;;7.15;2.72;;;13.90;96.40;;;;;;5112349;27;20412;-88
2023/07/18 00:17:39;;;;;;;9.10;2.83;;;13.90;96.30;;;;;;5108916;28;20610;-88
2023/07/18 00:20:09;;;;;;;10.35;3.22;;;13.90;96.20;;;;;;5104547;28;20423;-88
2023/07/18 00:22:40;;;;;;;7.28;2.90;;;13.80;96.30;;;;;;5110233;27;20066;-88
2023/07/18 00:25:10;;;;;;;6.22;2.65;;;13.80;96.20;;;;;;5102093;28;20540;-87
2023/07/18 00:27:36;;;;;;;8.02;2.67;;;13.80;96.00;;;;;;5109607;27;20035;-88
2023/07/18 00:30:02;;;;;;;7.25;2.70;;;13.80;96.00;;;;;;5112228;28;20118;-87
2023/07/18 00:32:28;;;;;;;7.05;2.88;;;13.80;96.10;;;;;;5112596;28;20015;-87
2023/07/18 00:34:56;;;;;;;7.70;2.90;;;13.90;96.30;;;;;;5104800;28;20034;-87
2023/07/18 00:37:23;;;;;;;5.68;2.35;;;13.80;96.60;;;;;;5107953;28;20039;-86
2023/07/18 00:39:48;;;;;;;6.97;2.42;;;13.80;96.50;;;;;;5108464;27;20103;-88
2023/07/18 00:42:14;;;;;;;9.10;2.50;;;13.80;96.50;;;;;;5111077;27;20115;-88
2023/07/18 00:44:40;;;;;;;5.28;2.60;;;13.70;96.50;;;;;;5113096;27;20412;-87
2023/07/18 00:47:07;;;;;;;5.95;2.55;;;13.60;96.50;;;;;;5106994;27;20395;-87
2023/07/18 00:49:34;;;;;;;8.90;2.45;;;13.60;96.50;;;;;;5112107;27;20032;-88
2023/07/18 00:52:01;;;;;;;5.72;2.60;;;13.60;96.60;;;;;;5112294;27;20042;-88
2023/07/18 00:54:27;;;;;;;5.47;2.58;;;13.60;96.90;;;;;;5115779;28;20072;-88
2023/07/18 00:56:54;;;;;;;6.05;2.38;;;13.50;97.10;;;;;;5108905;28;20032;-86
2023/07/18 00:59:21;;;;;;;8.35;2.67;;;13.50;96.70;;;;;;5113953;28;20118;-86
2023/07/18 01:01:47;;;;;;;8.10;2.50;;;13.50;96.80;;;;;;5113359;28;20027;-88
2023/07/18 01:04:13;;;;;;;7.97;2.28;;;13.50;97.00;;;;;;5113899;28;20034;-88
2023/07/18 01:06:39;;;;;;;7.90;2.70;;;13.50;97.00;;;;;;5114847;28;20016;-87
2023/07/18 01:09:05;;;;;;;8.70;2.60;;;13.50;97.00;;;;;;5104835;28;20023;-87
2023/07/18 01:11:31;;;;;;;6.45;2.33;;;13.40;97.10;;;;;;5129749;27;20024;-88
2023/07/18 01:13:56;;;;;;;7.38;2.60;;;13.40;97.20;;;;;;5111906;28;20567;-86
2023/07/18 01:16:22;;;;;;;8.65;2.55;;;13.30;97.10;;;;;;5116006;28;20031;-88
2023/07/18 01:18:48;;;;;;;8.02;2.53;;;13.20;97.30;;;;;;5108027;28;20073;-87
2023/07/18 01:21:21;;;;;;;7.85;2.70;;;13.10;97.40;;;;;;5108781;28;20039;-87
2023/07/18 01:23:47;;;;;;;7.45;2.78;;;13.10;97.50;;;;;;5100778;28;20461;-87
2023/07/18 01:26:13;;;;;;;8.23;2.85;;;13.10;97.50;;;;;;5115022;28;20035;-86
2023/07/18 01:28:39;;;;;;;7.38;2.90;;;13.10;97.50;;;;;;5115205;28;20065;-86
2023/07/18 01:31:05;;;;;;;7.40;2.60;;;13.10;97.50;;;;;;5115547;28;20432;-88
2023/07/18 01:33:34;;;;;;;6.80;2.50;;;13.10;97.60;;;;;;5116722;28;20027;-88
2023/07/18 01:36:00;;;;;;;6.68;2.55;;;13.10;97.70;;;;;;5114126;28;20039;-88
2023/07/18 01:38:29;;;;;;;5.53;2.47;;;13.10;97.60;;;;;;5113672;28;20032;-86
2023/07/18 01:40:55;;;;;;;6.40;2.70;;;13.10;97.60;;;;;;5112292;28;20020;-87
2023/07/18 01:43:22;;;;;;;6.15;2.70;;;13.10;97.60;;;;;;5116734;28;20047;-87
2023/07/18 01:45:50;;;;;;;6.68;2.85;;;13.00;97.60;;;;;;5117178;28;20024;-87
2023/07/18 01:48:18;;;;;;;7.32;2.65;;;12.90;97.70;;;;;;5116173;28;20344;-88
2023/07/18 01:50:43;;;;;;;8.05;2.50;;;12.80;97.70;;;;;;5116487;27;20027;-85
2023/07/18 01:53:12;;;;;;;9.13;2.38;;;12.80;97.70;;;;;;5115641;28;20020;-86
2023/07/18 01:55:38;;;;;;;7.25;2.40;;;12.90;97.70;;;;;;5102010;28;20026;-86
2023/07/18 01:58:04;;;;;;;6.60;2.40;;;12.90;97.90;;;;;;5114232;28;20324;-87
2023/07/18 02:00:31;;;;;;;7.60;2.60;;;12.90;97.90;;;;;;5115406;28;20107;-86
2023/07/18 02:02:57;;;;;;;6.68;2.50;;;12.90;97.70;;;;;;5111126;28;20024;-87
2023/07/18 02:05:25;;;;;;;5.72;2.25;;;12.90;97.50;;;;;;5105935;28;20050;-86
2023/07/18 02:07:51;;;;;;;7.75;2.13;;;13.00;97.60;;;;;;5106413;28;20416;-87
2023/07/18 02:10:21;;;;;;;5.57;2.60;;;12.90;97.70;;;;;;5107313;27;20033;-86
2023/07/18 02:12:52;;;;;;;5.68;2.40;;;12.80;97.80;;;;;;5110757;27;20469;-87
2023/07/18 02:15:19;;;;;;;5.72;2.50;;;12.80;97.80;;;;;;5110489;27;20076;-86
2023/07/18 02:17:45;;;;;;;7.55;2.58;;;12.80;97.80;;;;;;5114105;28;20028;-87
2023/07/18 02:20:11;;;;;;;6.72;2.50;;;12.80;97.80;;;;;;5115215;28;20024;-86
2023/07/18 02:22:39;;;;;;;5.57;2.40;;;12.80;97.70;;;;;;5095908;28;20035;-87
2023/07/18 02:25:05;;;;;;;4.65;2.05;;;12.80;97.80;;;;;;5107019;28;20051;-87
2023/07/18 02:27:32;;;;;;;7.05;2.22;;;12.80;97.80;;;;;;5109130;28;20028;-86
2023/07/18 02:30:00;;;;;;;9.60;2.97;;;12.70;97.80;;;;;;5110227;28;20066;-86
2023/07/18 02:32:29;;;;;;;5.57;2.60;;;12.80;98.00;;;;;;5111145;28;20027;-87
2023/07/18 02:34:55;;;;;;;9.00;2.30;;;12.70;97.90;;;;;;5107591;28;20051;-87
2023/07/18 02:37:20;;;;;;;10.77;3.00;;;12.70;97.90;;;;;;5113299;28;20112;-87
2023/07/18 02:39:46;;;;;;;7.32;2.38;;;12.70;97.90;;;;;;5114588;28;20031;-87
2023/07/18 02:42:12;;;;;;;10.07;2.50;;;12.80;97.70;;;;;;5115723;28;20035;-86
2023/07/18 02:44:37;;;;;;;6.45;2.40;;;12.80;97.70;;;;;;5115655;28;20028;-85
2023/07/18 02:47:03;;;;;;;7.55;2.63;;;12.90;97.70;;;;;;5113540;28;20035;-85
2023/07/18 02:49:29;;;;;;;7.28;2.28;;;12.90;97.80;;;;;;5109534;28;20048;-85
2023/07/18 02:51:55;;;;;;;7.38;2.45;;;12.80;97.90;;;;;;5097719;28;20101;-85
2023/07/18 02:54:20;;;;;;;4.90;2.25;;;12.80;97.80;;;;;;5107041;28;20107;-87
2023/07/18 02:56:46;;;;;;;5.40;2.20;;;12.80;97.70;;;;;;5115471;28;20115;-85
2023/07/18 02:59:12;;;;;;;6.22;2.70;;;12.70;97.90;;;;;;5114876;28;21980;-86
2023/07/18 03:01:44;;;;;;;6.90;2.55;;;12.70;97.80;;;;;;5115462;28;20028;-87
2023/07/18 03:04:09;;;;;;;9.60;2.50;;;12.60;97.80;;;;;;5116892;28;20093;-87
2023/07/18 03:06:35;;;;;;;7.78;2.78;;;12.60;98.00;;;;;;5111744;28;20663;-85
2023/07/18 03:09:01;;;;;;;6.85;2.30;;;12.50;98.00;;;;;;5106866;27;20370;-87
2023/07/18 03:11:27;;;;;;;7.72;2.60;;;12.40;98.00;;;;;;5108133;27;20121;-87
2023/07/18 03:13:52;;;;;;;5.20;2.60;;;12.40;97.90;;;;;;5109958;27;20492;-87
2023/07/18 03:16:18;;;;;;;6.10;2.25;;;12.40;97.90;;;;;;5117058;28;20419;-87
2023/07/18 03:18:43;;;;;;;6.20;2.80;;;12.40;97.90;;;;;;5117525;28;20073;-87
2023/07/18 03:21:09;;;;;;;7.28;2.63;;;12.40;97.90;;;;;;5111885;27;20028;-87
2023/07/18 03:23:35;;;;;;;7.05;2.10;;;12.40;97.80;;;;;;5103072;27;20062;-87
2023/07/18 03:26:01;;;;;;;8.30;2.60;;;12.30;97.60;;;;;;5118998;28;20032;-87
2023/07/18 03:28:26;;;;;;;6.20;2.42;;;12.30;97.80;;;;;;5118848;27;20108;-86
2023/07/18 03:30:52;;;;;;;6.43;2.38;;;12.30;97.80;;;;;;5117525;27;20023;-87
2023/07/18 03:33:18;;;;;;;6.13;2.20;;;12.40;97.90;;;;;;5114320;28;20102;-87
2023/07/18 03:35:43;;;;;;;6.85;2.45;;;12.40;97.90;;;;;;5117172;28;20036;-86
2023/07/18 03:38:09;;;;;;;7.05;2.28;;;12.40;97.90;;;;;;5114639;27;20341;-86
2023/07/18 03:40:34;;;;;;;4.85;2.65;;;12.40;98.00;;;;;;5108068;27;20455;-87
2023/07/18 03:43:00;;;;;;;7.55;2.65;;;12.40;97.90;;;;;;5103107;28;20023;-86
2023/07/18 03:45:26;;;;;;;9.32;2.72;;;12.40;98.00;;;;;;5109463;28;20023;-86
2023/07/18 03:47:52;;;;;;;10.52;2.53;;;12.40;98.00;;;;;;5114998;28;20027;-87
2023/07/18 03:50:17;;;;;;;5.25;2.17;;;12.50;98.00;;;;;;5115413;27;20023;-87
2023/07/18 03:52:43;;;;;;;8.30;2.55;;;12.50;98.00;;;;;;5108009;27;20027;-87
2023/07/18 03:55:09;;;;;;;5.90;2.80;;;12.50;98.00;;;;;;5115671;27;20019;-87
2023/07/18 03:57:35;;;;;;;7.35;2.60;;;12.50;98.00;;;;;;5106449;28;20417;-87
2023/07/18 04:00:06;;;;;;;8.00;2.45;;;12.50;98.00;;;;;;5112259;27;20051;-87
2023/07/18 04:02:31;;;;;;;9.68;2.63;;;12.50;98.00;;;;;;5107192;27;20348;-87
2023/07/18 04:04:57;;;;;;;8.82;2.63;;;12.60;98.00;;;;;;5113615;28;20063;-87
2023/07/18 04:07:24;;;;;;;7.72;2.60;;;12.60;97.90;;;;;;5111792;28;20051;-87
2023/07/18 04:09:50;;;;;;;6.80;2.20;;;12.60;98.00;;;;;;5114340;28;20023;-87
2023/07/18 04:12:16;;;;;;;5.82;2.40;;;12.60;98.00;;;;;;5111410;27;20031;-86
2023/07/18 04:14:42;;;;;;;7.07;2.15;;;12.60;98.00;;;;;;5114858;27;20027;-87
2023/07/18 04:17:08;;;;;;;6.72;2.50;;;12.60;98.00;;;;;;5115746;27;20031;-86
2023/07/18 04:19:34;;;;;;;5.82;2.30;;;12.70;98.00;;;;;;5115149;27;20320;-86
2023/07/18 04:22:00;;;;;;;8.38;2.40;;;12.70;97.90;;;;;;5113189;28;20024;-86
2023/07/18 04:24:25;;;;;;;5.45;2.10;;;12.70;98.00;;;;;;5107469;27;20602;-87
2023/07/18 04:26:51;;;;;;;6.32;2.45;;;12.70;97.80;;;;;;5135388;27;20023;-87
2023/07/18 04:29:18;;;;;;;6.10;2.30;;;12.70;98.00;;;;;;5117399;27;20034;-85
2023/07/18 04:31:44;;;;;;;7.80;2.25;;;12.80;98.00;;;;;;5108997;27;20117;-87
2023/07/18 04:34:10;;;;;;;8.48;2.28;;;12.90;98.00;;;;;;5122425;27;20020;-87
2023/07/18 04:36:36;;;;;;;6.10;2.55;;;12.90;98.00;;;;;;5136796;27;20340;-86
2023/07/18 04:39:01;;;;;;;8.82;2.42;;;13.00;98.00;;;;;;5135453;27;20340;-87
2023/07/18 04:41:27;;;;;;;7.40;2.33;;;13.00;97.90;;;;;;5117929;28;20061;-86
2023/07/18 04:43:52;;;;;;;6.55;2.00;;;13.00;98.00;;;;;;5126692;27;20106;-85
2023/07/18 04:46:19;;;;;;;7.28;2.42;;;13.10;97.80;;;;;;5119491;27;20031;-86
2023/07/18 04:48:45;;;;;;;9.02;2.25;;;13.20;97.70;;;;;;5108148;27;20309;-87
2023/07/18 04:51:10;;;;;;;6.50;2.20;;;13.20;97.80;;;;;;5121507;27;20023;-86
2023/07/18 04:53:36;;;;;;;6.05;2.20;;;13.20;97.90;;;;;;5121324;27;20365;-86
2023/07/18 04:56:04;;;;;;;7.20;2.13;;;13.20;97.80;;;;;;5111919;27;20030;-86
2023/07/18 04:58:29;;;;;;;5.93;1.80;;;13.20;97.90;;;;;;5109143;27;20016;-87
2023/07/18 05:00:56;;;;;;;6.20;1.83;;;13.30;97.80;;;;;;5116433;28;20026;-86
2023/07/18 05:03:23;;;;;;;9.10;2.28;;;13.30;97.80;;;;;;5117188;28;20036;-87
2023/07/18 05:05:49;;;;;;;6.05;2.10;;;13.40;97.80;;;;;;5110250;28;20027;-87
2023/07/18 05:08:15;;;;;;;8.75;1.98;;;13.50;97.70;;;;;;5116642;28;20040;-87
2023/07/18 05:10:41;;;;;;;9.93;2.45;;;13.60;97.80;;;;;;5115551;28;20027;-87
2023/07/18 05:13:07;;;;;;;7.75;2.10;;;13.60;97.80;;;;;;5117680;28;20408;-87
2023/07/18 05:15:32;;;;;;;8.52;2.22;;;13.70;97.80;;;;;;5116609;28;20095;-87
2023/07/18 05:17:58;;;;;;;5.25;2.05;;;13.80;98.00;;;;;;5105729;28;20024;-86
2023/07/18 05:20:23;;;;;;;6.15;2.38;;;13.90;97.50;;;;;;5103475;28;20032;-86
2023/07/18 05:22:49;;;;;;;6.70;2.13;;;13.90;97.90;;;;;;5105368;28;20162;-86
2023/07/18 05:25:19;;;;;;;5.03;2.10;;;14.00;97.60;;;;;;5110526;28;20076;-86
2023/07/18 05:27:45;;;;;;;6.20;2.35;;;14.20;97.90;;;;;;5103853;28;20020;-87
2023/07/18 05:30:13;;;;;;;7.18;2.40;;;14.30;97.60;;;;;;5117285;28;20047;-87
2023/07/18 05:32:39;;;;;;;5.35;2.10;;;14.40;97.70;;;;;;5102740;28;20035;-87
2023/07/18 05:35:05;;;;;;;7.15;1.95;;;14.60;97.30;;;;;;5106554;28;20023;-87
2023/07/18 05:37:31;;;;;;;6.57;2.22;;;14.70;97.30;;;;;;5114681;28;20097;-86
2023/07/18 05:39:57;;;;;;;7.63;2.00;;;14.90;96.90;;;;;;5107465;28;20020;-85
2023/07/18 05:42:25;;;;;;;8.07;1.83;;;15.00;96.70;;;;;;5096712;28;20103;-85
2023/07/18 05:44:51;;;;;;;9.02;1.90;;;15.10;95.40;;;;;;5096526;28;20032;-85
2023/07/18 05:47:16;;;;;;;5.30;1.83;;;15.30;94.50;;;;;;5111278;28;20031;-85
2023/07/18 05:49:42;;;;;;;8.90;2.33;;;15.40;94.60;;;;;;5115997;28;20034;-87
2023/07/18 05:52:08;;;;;;;8.70;2.08;;;15.60;94.70;;;;;;5114742;28;20027;-88
2023/07/18 05:54:33;;;;;;;7.10;2.03;;;15.70;94.60;;;;;;5115894;28;20051;-88
2023/07/18 05:56:59;;;;;;;5.55;2.00;;;15.90;93.10;;;;;;5114988;28;20026;-87
2023/07/18 05:59:26;;;;;;;6.72;2.10;;;16.20;92.10;;;;;;5117035;28;20404;-87
2023/07/18 06:01:52;;;;;;;6.35;1.95;;;16.20;90.60;;;;;;5116769;28;20614;-88
2023/07/18 06:04:17;;;;;;;5.18;1.90;;;16.40;90.70;;;;;;5109450;28;20064;-88
2023/07/18 06:06:43;;;;;;;6.25;1.90;;;16.70;91.20;;;;;;5095192;28;20020;-88
2023/07/18 06:09:09;;;;;;;5.95;1.95;;;16.90;90.70;;;;;;5096459;28;20024;-88
2023/07/18 06:11:35;;;;;;;5.40;1.55;;;17.00;90.70;;;;;;5096229;28;20032;-88
2023/07/18 06:14:01;;;;;;;5.03;1.75;;;17.10;90.20;;;;;;5101080;28;20355;-87
2023/07/18 06:16:27;;;;;;;4.55;2.05;;;17.30;89.90;;;;;;5096184;28;20023;-88
2023/07/18 06:18:54;;;;;;;6.05;2.00;;;17.40;89.60;;;;;;5095544;28;20342;-88
2023/07/18 06:21:19;;;;;;;5.32;1.77;;;17.60;88.80;;;;;;5094853;28;20056;-87
2023/07/18 06:23:45;;;;;;;24.15;5.72;;;17.60;88.50;;;;;;5103163;28;20072;-88
2023/07/18 06:26:10;;;;;;;6.53;2.25;;;17.70;87.60;;;;;;5118064;28;20319;-88
2023/07/18 06:28:36;;;;;;;6.07;2.20;;;17.80;87.80;;;;;;5115752;28;20070;-88
2023/07/18 06:31:02;;;;;;;6.35;2.30;;;17.80;88.30;;;;;;5107546;28;20024;-87
2023/07/18 06:33:28;;;;;;;6.70;2.22;;;17.80;88.40;;;;;;5095947;28;20012;-88
2023/07/18 06:35:55;;;;;;;5.63;2.25;;;17.90;88.80;;;;;;5094750;28;20123;-88
2023/07/18 06:38:25;;;;;;;7.40;2.72;;;18.00;88.50;;;;;;5095606;28;20073;-87
2023/07/18 06:40:50;;;;;;;11.13;2.97;;;18.10;89.10;;;;;;5119731;27;20019;-88
2023/07/18 06:43:17;;;;;;;7.93;3.20;;;18.30;88.80;;;;;;5131362;27;20323;-87
2023/07/18 06:45:46;;;;;;;6.82;2.35;;;18.40;88.60;;;;;;5100599;28;20446;-88
2023/07/18 06:48:13;;;;;;;6.70;2.15;;;18.30;88.20;;;;;;5115521;28;20030;-88
2023/07/18 06:50:47;;;;;;;8.57;2.75;;;18.50;88.60;;;;;;5114787;28;20024;-87
2023/07/18 06:53:18;;;;;;;;;;;18.60;88.00;;;;;;5103112;28;20416;-88
2023/07/18 06:55:44;;;;;;;6.32;2.30;;;18.60;87.80;;;;;;5103644;28;19912;-88
2023/07/18 06:58:10;;;;;;;4.93;2.22;;;18.70;87.60;;;;;;5112889;28;20039;-87
2023/07/18 07:00:36;;;;;;;8.13;3.10;;;19.00;88.00;;;;;;5112789;28;20055;-88
2023/07/18 07:03:02;;;;;;;7.47;2.53;;;19.10;87.50;;;;;;5115060;28;20416;-88
2023/07/18 07:05:27;;;;;;;5.53;2.20;;;19.30;86.80;;;;;;5099672;28;20034;-87
2023/07/18 07:07:54;;;;;;;6.95;2.45;;;19.30;86.90;;;;;;5109193;28;20431;-88
2023/07/18 07:10:20;;;;;;;7.55;2.05;;;19.50;87.50;;;;;;5108017;28;20064;-88
2023/07/18 07:12:45;;;;;;;7.65;2.45;;;19.60;86.70;;;;;;5115997;28;20463;-88
2023/07/18 07:15:14;;;;;;;6.25;2.33;;;19.80;86.20;;;;;;5113350;28;20019;-87
2023/07/18 07:17:39;;;;;;;6.72;1.80;;;20.00;83.00;;;;;;5110269;28;20024;-87
2023/07/18 07:20:06;;;;;;;7.53;2.10;;;20.00;84.00;;;;;;5108249;28;20072;-88
2023/07/18 07:22:32;;;;;;;4.82;2.22;;;20.20;85.10;;;;;;5100475;28;20457;-88
2023/07/18 07:24:58;;;;;;;4.68;2.28;;;20.20;85.10;;;;;;5114305;28;20028;-88
2023/07/18 07:27:23;;;;;;;6.50;2.45;;;20.40;84.50;;;;;;5115832;28;20358;-89
2023/07/18 07:29:49;;;;;;;5.10;2.47;;;20.50;84.20;;;;;;5115166;28;20028;-88
2023/07/18 07:32:15;;;;;;;6.40;2.30;;;20.60;83.40;;;;;;5115923;28;20020;-88
2023/07/18 07:34:42;;;;;;;6.00;2.78;;;21.00;81.80;;;;;;5115934;28;20031;-88
2023/07/18 07:37:08;;;;;;;12.50;2.60;;;21.70;79.70;;;;;;5111937;28;20066;-88
2023/07/18 07:39:34;;;;;;;7.13;2.47;;;22.60;75.20;;;;;;5115050;28;20020;-89
2023/07/18 07:42:00;;;;;;;8.68;2.55;;;23.40;77.00;;;;;;5115770;28;20035;-88
2023/07/18 07:44:27;;;;;;;8.35;2.40;;;23.90;76.90;;;;;;5115886;28;20059;-89
2023/07/18 07:46:54;;;;;;;4.68;2.30;;;24.70;74.30;;;;;;5115156;28;20024;-89
2023/07/18 07:49:21;;;;;;;4.80;2.20;;;25.10;74.20;;;;;;5113477;28;20062;-90
2023/07/18 07:51:46;;;;;;;8.00;2.80;;;25.80;72.60;;;;;;5110178;28;20054;-89
2023/07/18 07:54:12;;;;;;;6.93;2.38;;;26.10;70.30;;;;;;5111016;28;20019;-88
2023/07/18 07:56:37;;;;;;;9.55;2.45;;;25.60;68.70;;;;;;5118548;28;20026;-88
2023/07/18 07:59:03;;;;;;;8.15;2.45;;;25.80;65.40;;;;;;5118461;28;20062;-89
2023/07/18 08:01:29;;;;;;;8.23;2.50;;;25.80;71.10;;;;;;5109553;28;20488;-89
2023/07/18 08:03:54;;;;;;;7.63;2.45;;;26.00;67.50;;;;;;5107064;28;20036;-89
2023/07/18 08:06:20;;;;;;;8.75;2.42;;;26.50;69.50;;;;;;5112789;28;20375;-89
2023/07/18 08:08:46;;;;;;;5.47;2.70;;;26.70;65.70;;;;;;5101993;28;20036;-88
2023/07/18 08:11:12;;;;;;;5.65;2.58;;;26.30;67.60;;;;;;5101529;28;20023;-89
2023/07/18 08:13:37;;;;;;;6.15;2.60;;;26.80;65.10;;;;;;5119220;28;20019;-89
2023/07/18 08:16:05;;;;;;;6.13;2.80;;;27.40;65.40;;;;;;5112794;28;20016;-89
2023/07/18 08:18:30;;;;;;;8.02;2.95;;;28.30;64.70;;;;;;5103391;28;20028;-89
2023/07/18 08:20:56;;;;;;;6.80;2.88;;;28.80;62.10;;;;;;5106161;28;20034;-89
2023/07/18 08:23:22;;;;;;;9.18;2.83;;;28.90;60.90;;;;;;5119055;28;20035;-89
2023/07/18 08:25:49;;;;;;;6.95;2.70;;;29.20;58.90;;;;;;5103547;28;20023;-89
2023/07/18 08:28:14;;;;;;;6.85;2.35;;;29.10;60.80;;;;;;5098431;28;20023;-89
2023/07/18 08:30:40;;;;;;;7.40;2.88;;;28.80;60.10;;;;;;5100283;28;20028;-89
2023/07/18 08:33:09;;;;;;;7.32;2.60;;;28.50;60.70;;;;;;5106933;28;20031;-89
2023/07/18 08:35:37;;;;;;;6.15;2.60;;;28.40;62.40;;;;;;5106903;28;20054;-88
2023/07/18 08:38:04;;;;;;;7.70;2.80;;;28.50;61.90;;;;;;5112895;28;20289;-89
2023/07/18 08:40:30;;;;;;;7.00;2.65;;;28.60;60.80;;;;;;5097983;28;20098;-89
2023/07/18 08:42:56;;;;;;;9.02;2.63;;;29.00;62.30;;;;;;5098219;28;20028;-88
2023/07/18 08:45:24;;;;;;;7.05;3.00;;;29.40;59.90;;;;;;5098140;28;20392;-89
2023/07/18 08:47:56;;;;;;;9.48;2.80;;;29.80;58.50;;;;;;5100386;28;20055;-89
2023/07/18 08:50:23;;;;;;;6.78;2.65;;;29.70;58.20;;;;;;5097326;28;20136;-89
2023/07/18 08:52:49;;;;;;;7.05;2.28;;;29.80;58.50;;;;;;5097609;28;20035;-89
2023/07/18 08:55:14;;;;;;;5.30;2.55;;;29.70;61.20;;;;;;5096860;28;20020;-89
2023/07/18 08:57:41;;;;;;;8.50;2.88;;;29.40;64.20;;;;;;5097927;28;20024;-90
2023/07/18 09:00:07;;;;;;;8.43;3.13;;;29.80;62.60;;;;;;5097665;28;20024;-89
2023/07/18 09:02:33;;;;;;;7.95;2.95;;;29.80;63.10;;;;;;5100059;28;20034;-88
2023/07/18 09:04:59;;;;;;;6.50;3.15;;;28.60;62.50;;;;;;5118307;28;20099;-89
2023/07/18 09:07:27;;;;;;;8.10;3.00;;;28.60;65.60;;;;;;5116072;28;20028;-89
2023/07/18 09:09:54;;;;;;;7.20;2.85;;;29.20;61.10;;;;;;5118150;28;20139;-89
2023/07/18 09:12:20;;;;;;;6.60;2.90;;;29.40;65.20;;;;;;5117836;28;20023;-89
2023/07/18 09:14:46;;;;;;;9.27;3.08;;;29.00;64.10;;;;;;5118179;28;20023;-89
2023/07/18 09:17:11;;;;;;;21.63;5.53;;;28.40;66.80;;;;;;5116846;28;20024;-89
2023/07/18 09:19:42;;;;;;;8.43;2.95;;;28.80;66.30;;;;;;5117919;28;20024;-89
2023/07/18 09:22:09;;;;;;;7.93;3.05;;;29.00;64.60;;;;;;5098887;28;20359;-88
2023/07/18 09:24:35;;;;;;;7.47;2.55;;;28.70;65.50;;;;;;5101801;28;20110;-89
2023/07/18 09:27:24;;;;;;;8.02;2.58;;;28.80;64.90;;;;;;5097433;28;20023;-89
2023/07/18 09:29:52;;;;;;;23.77;3.78;;;29.50;63.20;;;;;;5106887;28;20043;-89
2023/07/18 09:32:20;;;;;;;8.73;2.80;;;29.50;60.90;;;;;;5114215;28;20035;-89
2023/07/18 09:34:52;;;;;;;8.82;3.40;;;29.50;64.00;;;;;;5117500;28;20386;-88
2023/07/18 09:37:18;;;;;;;7.95;2.53;;;28.80;63.70;;;;;;5115142;28;20043;-89
2023/07/18 09:39:45;;;;;;;6.30;2.70;;;28.70;66.50;;;;;;5117526;28;20439;-88
2023/07/18 09:42:12;;;;;;;7.00;2.53;;;29.00;65.20;;;;;;5114827;28;20106;-88
2023/07/18 09:44:39;;;;;;;6.90;2.72;;;29.20;63.70;;;;;;5115617;28;20032;-89
2023/07/18 09:47:06;;;;;;;5.35;2.50;;;29.30;64.50;;;;;;5116606;28;20091;-89
2023/07/18 09:49:33;;;;;;;5.60;2.55;;;29.80;62.50;;;;;;5116345;28;20034;-88
2023/07/18 09:52:05;;;;;;;6.28;2.47;;;29.90;63.10;;;;;;5115970;28;20023;-88
2023/07/18 09:54:33;;;;;;;4.83;2.33;;;30.60;62.50;;;;;;5117239;28;20023;-88
2023/07/18 09:57:10;;;;;;;7.03;3.10;;;29.80;62.40;;;;;;5116052;28;20268;-88
2023/07/18 09:59:38;;;;;;;7.50;2.60;;;29.20;62.30;;;;;;5115949;28;20034;-88
2023/07/18 10:02:06;;;;;;;6.78;3.20;;;28.60;65.40;;;;;;5116035;28;20023;-89
2023/07/18 10:04:32;;;;;;;7.28;3.15;;;27.90;65.90;;;;;;5117142;28;20024;-88
2023/07/18 10:06:58;;;;;;;6.28;3.08;;;27.10;66.40;;;;;;5115788;28;20051;-88
2023/07/18 10:09:27;;;;;;;7.40;2.85;;;26.30;69.10;;;;;;5098894;28;20462;-88
2023/07/18 10:11:59;;;;;;;5.43;2.63;;;25.40;71.10;;;;;;5095387;28;20024;-87
2023/07/18 10:14:46;;;;;;;9.73;3.00;;;24.90;71.30;;;;;;5100122;28;20015;-88
2023/07/18 10:17:44;;;;;;;8.35;3.20;;;24.80;72.50;;;;;;5108783;28;20443;-88
2023/07/18 10:20:18;;;;;;;11.55;3.22;;;24.60;74.20;;;;;;5062210;28;20036;-87
2023/07/18 10:22:58;;;;;;;7.97;3.20;;;24.50;75.00;;;;;;5111507;28;20024;-88
2023/07/18 10:25:26;;;;;;;7.68;3.13;;;24.80;75.90;;;;;;5096300;28;20024;-88
2023/07/18 10:27:52;;;;;;;9.40;3.25;;;24.70;74.10;;;;;;5106246;28;20039;-88
2023/07/18 10:30:19;;;;;;;13.20;3.53;;;25.20;74.60;;;;;;5116571;28;20024;-88
2023/07/18 10:32:58;;;;;;;11.13;3.00;;;26.10;72.70;;;;;;5115458;28;20081;-88
2023/07/18 10:35:26;;;;;;;5.43;2.78;;;27.10;69.70;;;;;;5115300;28;20052;-88
2023/07/18 10:37:54;;;;;;;6.78;2.85;;;28.20;70.00;;;;;;5115517;28;20030;-87
2023/07/18 10:40:33;;;;;;;7.75;2.70;;;29.50;68.20;;;;;;5104719;28;20028;-87
2023/07/18 10:42:59;;;;;;;9.30;2.90;;;30.10;64.90;;;;;;5096092;28;20069;-88
2023/07/18 10:45:26;;;;;;;5.82;2.97;;;30.80;64.30;;;;;;5096104;28;20028;-87
2023/07/18 10:47:52;;;;;;;7.90;3.28;;;30.70;62.00;;;;;;5114245;28;20032;-87
2023/07/18 10:50:17;;;;;;;6.07;3.00;;;30.90;61.60;;;;;;5116125;28;20081;-87
2023/07/18 10:52:43;;;;;;;7.65;3.17;;;31.10;61.80;;;;;;5114364;28;20324;-87
2023/07/18 10:55:09;;;;;;;6.95;3.00;;;30.60;61.30;;;;;;5112788;28;20028;-88
2023/07/18 10:57:38;;;;;;;5.45;2.80;;;30.20;61.30;;;;;;5116202;28;20024;-87
2023/07/18 11:00:06;;;;;;;10.50;3.63;;;29.60;63.20;;;;;;5103307;28;20024;-88
2023/07/18 11:02:40;;;;;;;7.75;3.20;;;28.50;63.70;;;;;;5095987;28;20108;-88
2023/07/18 11:05:10;;;;;;;10.18;3.00;;;27.50;67.10;;;;;;5106972;28;20416;-88
2023/07/18 11:07:40;;;;;;;7.63;3.45;;;26.40;69.40;;;;;;5110288;28;20058;-87
2023/07/18 11:10:08;;;;;;;6.32;3.42;;;25.70;71.80;;;;;;5115350;28;20098;-88
2023/07/18 11:12:34;;;;;;;8.48;3.80;;;25.20;72.80;;;;;;5115987;28;20016;-88
2023/07/18 11:14:59;;;;;;;6.25;3.35;;;24.90;74.50;;;;;;5111012;28;20438;-87
2023/07/18 11:17:25;;;;;;;6.55;3.35;;;24.70;74.90;;;;;;5115066;28;20015;-87
2023/07/18 11:19:56;;;;;;;10.55;3.70;;;24.50;74.50;;;;;;5113916;28;20102;-88
2023/07/18 11:22:22;;;;;;;7.32;3.53;;;24.20;74.40;;;;;;5115063;28;20026;-87
2023/07/18 11:24:49;;;;;;;11.35;4.07;;;24.10;75.00;;;;;;5109107;28;20026;-87
2023/07/18 11:27:19;;;;;;;8.23;3.50;;;23.90;75.60;;;;;;5101215;28;20310;-88
2023/07/18 11:29:59;;;;;;;9.95;3.85;;;23.60;76.40;;;;;;5119055;28;20031;-88
2023/07/18 11:32:40;;;;;;;9.48;4.00;;;23.30;77.30;;;;;;5119831;28;20457;-88
2023/07/18 11:35:07;;;;;;;8.73;4.00;;;23.20;78.20;;;;;;5119863;28;20412;-88
2023/07/18 11:37:35;;;;;;;8.68;3.90;;;23.10;77.80;;;;;;5118568;28;20393;-88
2023/07/18 11:40:01;;;;;;;9.45;4.50;;;23.00;77.60;;;;;;5118605;28;20023;-87
2023/07/18 11:42:49;;;;;;;11.45;4.50;;;23.00;78.20;;;;;;5105187;28;20312;-87
2023/07/18 11:46:31;;;;;;;11.27;4.50;;;23.10;79.90;;;;;;5101982;28;20455;-93
2023/07/18 11:48:56;;;;;;;9.57;4.03;;;22.80;85.10;;;;;;5096617;28;20039;-90
2023/07/18 11:51:21;;;;;;;13.50;5.07;;;22.20;87.70;;;;;;5107974;28;20436;-89
2023/07/18 11:53:47;;;;;;;10.32;5.10;;;21.80;90.70;;;;;;5097893;28;20027;-88
2023/07/18 11:56:13;;;;;;;13.20;5.43;;;21.40;92.90;;;;;;5099240;28;20028;-88
2023/07/18 11:58:38;;;;;;;18.75;7.13;;;21.30;93.80;;;;;;5099034;28;20032;-90
2023/07/18 12:01:04;;;;;;;15.05;5.38;;;21.30;94.50;;;;;;5112275;27;20047;-90
2023/07/18 12:03:30;;;;;;;13.88;5.07;;;21.40;93.50;;;;;;5111362;28;20448;-91
2023/07/18 12:05:56;;;;;;;20.13;5.53;;;21.60;92.30;;;;;;5098760;28;20104;-91
2023/07/18 12:08:21;;;;;;;17.23;5.53;;;22.00;91.30;;;;;;5114684;27;20416;-92
2023/07/18 12:11:51;;;;;;;11.90;4.75;;;22.40;88.60;;;;;;5118210;28;20319;-93
2023/07/18 12:17:40;;;;;;;14.05;4.43;;;22.90;86.20;;;;;;5061755;28;20036;-92
2023/07/18 12:20:11;;;;;;;19.10;4.10;;;23.00;84.80;;;;;;5060163;28;20028;-92
2023/07/18 12:22:40;;;;;;;10.43;4.10;;;23.00;84.60;;;;;;5065738;28;20044;-93
2023/07/18 12:29:16;;;;;;;9.55;4.13;;;22.80;84.20;;;;;;4977678;28;20129;-91
2023/07/18 12:33:14;;;;;;;9.95;4.65;;;23.00;85.10;;;;;;4976006;28;20129;-94
2023/07/18 12:43:26;;;;;;;11.10;4.20;;;25.50;77.40;;;;;;4919836;29;20099;-92
2023/07/18 12:45:55;;;;;;;9.70;4.25;;;26.10;77.50;;;;;;4941357;29;20099;-91
2023/07/18 12:48:21;;;;;;;9.77;3.92;;;26.40;74.90;;;;;;4979333;28;20040;-89
2023/07/18 12:50:49;;;;;;;9.60;3.67;;;26.70;74.20;;;;;;5004688;28;20117;-91
2023/07/18 12:53:15;;;;;;;9.07;3.80;;;27.00;74.90;;;;;;5058440;28;20672;-90
2023/07/18 12:55:40;;;;;;;8.70;4.13;;;27.20;73.40;;;;;;5117682;28;20028;-89
2023/07/18 12:58:06;;;;;;;9.20;4.00;;;27.30;71.80;;;;;;5118349;28;20031;-90
2023/07/18 13:00:31;;;;;;;7.57;3.90;;;27.20;72.10;;;;;;5086257;28;20378;-90
2023/07/18 13:02:57;;;;;;;8.48;3.85;;;26.90;74.00;;;;;;5097942;28;20415;-90